KBVX

Batesville Regional Airport

Batesville, Arkansas, USA
METAR KBVX 150256Z AUTO 00000KT 10SM FEW046 SCT060 23/21 A2999 RMK AO2 SLP152 T02280206 53006
Observed Flight Rules
Aug-15 @ 02:56 UTC (40 minutes ago) Visual Flight Rules
Visibility Clouds
10 miles
  • Few at 4,600' AGL
  • Scattered at 6,000' AGL
Temperatures Readings
Current 23°C / 73°F
Dewpoint 21°C / 70°F
Humidity 89%
Altimeter 29.99" Hg
Pressure 1015.2 hPa
Elevation 141
METAR KBVX 150256Z AUTO 00000KT 10SM FEW046 SCT060 23/21 A2999 RMK AO2 SLP152 T02280206 53006
Observed Flight Rules
Aug-15 @ 02:56 UTC
(40 minutes ago)
VFR
Clouds
  • Few at 4,600' AGL
  • Scattered at 6,000' AGL
Temperature Dewpoint
23°C / 73°F 21°C / 70°F
Humidity Altimeter Pressure
89% 29.99" Hg 1015.2 hPa